Details From LEAM - Almeria
To LELC - Murcia San Javier
Flight Number -
Tags decoded
Created
Modified
Stats Distance 98 nm / 181 km
Max Altitude 0 ft / 0 m
Waypoints 5
Social Downloads 7
Likes 0
Share

Download

Looking for another format? Having issues loading an existing format? Contact us
Advertisement - Login to hide

Notes

Requested: LEAM AMR DINCO DIMER LELC

Route

LEAM AMR DINCO DIMER LELC

ID Type Via Altitude (ft/m) Position (lat/lon) Dist (leg/tot) Name
O LEAM APT - 0 / 0 36.84393 / -2.37010 - / 0 nm Almeria
AMR VOR - 0 / 0 36.83317 / -2.25942 5 / 5 nm ALMERIA VOR-DME
DINCO FIX - 0 / 0 37.25625 / -1.28777 53 / 58 nm
DIMER FIX - 0 / 0 37.30623 / -1.16859 6 / 64 nm
O LELC APT - 0 / 0 37.78026 / -0.81226 33 / 97 nm Murcia San Javier

Altitude Profile

Advertisement - Login to hide

LEAM

Details ICAO LEAM (LEI)
Name Almería-Antonio de Torres
Region Spain
Timezone Unknown
Stats Elevation 70 ft / 21 m (AMSL)
Location 36.844000° -2.370060°
Runways 1
Magnetic Variation 0.128° E

METAR

LEAM 231800Z 07012KT 040V110 9999 FEW040 27/19 Q1012

Decode

TAF

TAF LEAM 231700Z 2318/2418 08018KT 9999 SCT030 TX30/2414Z TN22/2406Z BECMG 2319/2322 05008KT BECMG 2411/2413 16010KT BECMG 2416/2418 22004KT

Decode

Departure Runways

ID Width Length Bearing (true/mag) Surface Threshold Overrun Markings Lighting
07 148 ft / 45 m 10,462 ft / 3,189 m 72.93° / 72.81° ASPHALT 479 ft / 146 m 0 ft / 0 m PREC-APP CENTERLINE EDGE THRESHOLD MALS REIL-OMNI
25 148 ft / 45 m 10,462 ft / 3,189 m 252.95° / 252.83° ASPHALT 0 ft / 0 m 0 ft / 0 m PREC-APP CENTERLINE EDGE THRESHOLD CALVERT-ILS REIL-OMNI

LELC

Details ICAO LELC (MJV)
Name Murcia San Javier
Region Spain
Timezone Europe/Madrid (UTC+2.0)
Stats Elevation 29 ft / 9 m (AMSL)
Location 37.775000° -0.812500°
Runways 2
Magnetic Variation 0.533° E

METAR

LELC 231800Z 03020KT 9999 FEW020 SCT030 25/21 Q1013 NOSIG

Decode

TAF

TAF LELC 231700Z 2318/2418 04018KT 9999 SCT020 TX28/2411Z TN22/2406Z TEMPO 2318/2324 04020G30KT BECMG 2401/2403 01008KT BECMG 2409/2412 07010KT PROB40 TEMPO 2318/2408 BKN010

Decode

Destination Runways

ID Width Length Bearing (true/mag) Surface Threshold Overrun Markings Lighting
05L 148 ft / 45 m 5,173 ft / 1,577 m 45.63° / 45.10° ASPHALT 0 ft / 0 m 646 ft / 197 m NONE
05R 148 ft / 45 m 7,611 ft / 2,320 m 45.64° / 45.11° ASPHALT 0 ft / 0 m 600 ft / 183 m PREC-APP EDGE THRESHOLD REIL-OMNI
23L 148 ft / 45 m 7,611 ft / 2,320 m 225.66° / 225.12° ASPHALT 0 ft / 0 m 617 ft / 188 m PREC-APP EDGE THRESHOLD REIL-OMNI
23R 148 ft / 45 m 5,173 ft / 1,577 m 225.64° / 225.11° ASPHALT 0 ft / 0 m 748 ft / 228 m NONE

Approach Navaids

Runway Type Ident Frequency Range Bearing (true/mag) Slope Elevation
05R OM OM - - 45.64° / 45.11 ° - 11 ft / 3 m (AMSL)
05R LOC-ILS ISJ 110.50 MHz 18 nm / 33 km 46.65° / 46.12 ° - 11 ft / 3 m (AMSL)
05R MM MM - - 45.64° / 45.11 ° - 11 ft / 3 m (AMSL)
23L LOC-ILS ISR 109.30 MHz 18 nm / 33 km 226.65° / 226.12 ° - 11 ft / 3 m (AMSL)

Popular Alternatives